Time;durP1;ratioP1;P1;durP2;ratioP2;P2;SDS_P1;SDS_P2;PMS_P1;PMS_P2;Temp;Humidity;BMP_temperature;BMP_pressure;BME280_temperature;BME280_humidity;BME280_pressure;Samples;Min_cycle;Max_cycle;Signal;HPM_P1;HPM_P2
2023/07/14 00:00:28;;;;;;;;;;;;;;;;;;5113951;28;908;-73
2023/07/14 00:02:54;;;;;;;;;;;;;;;;;;5113516;28;906;-73
2023/07/14 00:05:26;;;;;;;;;;;;;;;;;;5111949;28;1007;-74
2023/07/14 00:07:54;;;;;;;;;;;;;;;;;;5113167;28;860;-73
2023/07/14 00:10:23;;;;;;;;;;;;;;;;;;5114065;28;924;-73
2023/07/14 00:12:49;;;;;;;;;;;;;;;;;;5114143;28;1960;-74
2023/07/14 00:15:15;;;;;;;;;;;;;;;;;;5113290;28;924;-74
2023/07/14 00:17:40;;;;;;;;;;;;;;;;;;5111281;28;909;-75
2023/07/14 00:20:16;;;;;;;;;;;;;;;;;;5112358;28;850;-73
2023/07/14 00:22:41;;;;;;;;;;;;;;;;;;5112805;28;889;-74
2023/07/14 00:25:07;;;;;;;;;;;;;;;;;;5113250;28;838;-73
2023/07/14 00:27:33;;;;;;;;;;;;;;;;;;5112763;28;1406;-73
2023/07/14 00:29:58;;;;;;;;;;;;;;;;;;5113157;28;968;-73
2023/07/14 00:32:23;;;;;;;;;;;;;;;;;;5112926;28;1907;-73
2023/07/14 00:34:49;;;;;;;;;;;;;;;;;;5113085;28;1094;-74
2023/07/14 00:37:14;;;;;;;;;;;;;;;;;;5112965;28;1018;-73
2023/07/14 00:39:40;;;;;;;;;;;;;;;;;;5112742;28;939;-73
2023/07/14 00:42:10;;;;;;;;;;;;;;;;;;5112750;28;1055;-74
2023/07/14 00:44:36;;;;;;;;;;;;;;;;;;5112959;28;1032;-74
2023/07/14 00:47:01;;;;;;;;;;;;;;;;;;5094273;28;1338;-73
2023/07/14 00:49:38;;;;;;;;;;;;;;;;;;5112729;28;1075;-74
2023/07/14 00:52:11;;;;;;;;;;;;;;;;;;5112502;28;1960;-74
2023/07/14 00:54:38;;;;;;;;;;;;;;;;;;5112128;28;991;-74
2023/07/14 00:57:03;;;;;;;;;;;;;;;;;;5112090;28;850;-74
2023/07/14 00:59:33;;;;;;;;;;;;;;;;;;5111986;28;853;-74
2023/07/14 01:02:19;;;;;;;;;;;;;;;;;;5111986;28;877;-74
2023/07/14 01:05:05;;;;;;;;;;;;;;;;;;5111660;28;1091;-74
2023/07/14 01:07:36;;;;;;;;;;;;;;;;;;5112210;28;1010;-74
2023/07/14 01:10:02;;;;;;;;;;;;;;;;;;5093799;28;1155;-74
2023/07/14 01:12:29;;;;;;;;;;;;;;;;;;5093203;28;1988;-74
2023/07/14 01:14:55;;;;;;;;;;;;;;;;;;5112024;28;960;-74
2023/07/14 01:17:21;;;;;;;;;;;;;;;;;;5111585;28;873;-74
2023/07/14 01:19:46;;;;;;;;;;;;;;;;;;5111721;28;873;-74
2023/07/14 01:22:21;;;;;;;;;;;;;;;;;;5111540;28;905;-74
2023/07/14 01:24:58;;;;;;;;;;;;;;;;;;5094500;28;1112;-74
2023/07/14 01:27:24;;;;;;;;;;;;;;;;;;5106874;27;1683;-74
2023/07/14 01:29:50;;;;;;;;;;;;;;;;;;5133567;27;900;-74
2023/07/14 01:32:17;;;;;;;;;;;;;;;;;;5132383;27;1902;-74
2023/07/14 01:34:43;;;;;;;;;;;;;;;;;;5132980;27;951;-74
2023/07/14 01:37:08;;;;;;;;;;;;;;;;;;5114402;27;1193;-74
2023/07/14 01:39:34;;;;;;;;;;;;;;;;;;5132694;27;999;-74
2023/07/14 01:41:59;;;;;;;;;;;;;;;;;;5133003;27;892;-74
2023/07/14 01:44:24;;;;;;;;;;;;;;;;;;5113999;28;1209;-74
2023/07/14 01:46:50;;;;;;;;;;;;;;;;;;5113517;28;1258;-74
2023/07/14 01:49:24;;;;;;;;;;;;;;;;;;5113060;28;1387;-75
2023/07/14 01:51:51;;;;;;;;;;;;;;;;;;5132467;28;1960;-74
2023/07/14 01:54:22;;;;;;;;;;;;;;;;;;5132050;28;913;-74
2023/07/14 01:56:48;;;;;;;;;;;;;;;;;;5132037;28;846;-74
2023/07/14 01:59:19;;;;;;;;;;;;;;;;;;5113287;28;917;-74
2023/07/14 02:01:45;;;;;;;;;;;;;;;;;;5132208;28;1261;-74
2023/07/14 02:04:23;;;;;;;;;;;;;;;;;;5131886;28;906;-74
2023/07/14 02:06:48;;;;;;;;;;;;;;;;;;5113890;28;1091;-74
2023/07/14 02:09:16;;;;;;;;;;;;;;;;;;5132263;28;1063;-74
2023/07/14 02:11:43;;;;;;;;;;;;;;;;;;5131684;28;1893;-74
2023/07/14 02:14:13;;;;;;;;;;;;;;;;;;5113584;28;1364;-74
2023/07/14 02:16:39;;;;;;;;;;;;;;;;;;5131841;28;987;-74
2023/07/14 02:19:04;;;;;;;;;;;;;;;;;;5132040;28;1050;-74
2023/07/14 02:21:30;;;;;;;;;;;;;;;;;;5131768;28;872;-74
2023/07/14 02:23:56;;;;;;;;;;;;;;;;;;5131818;28;881;-74
2023/07/14 02:26:31;;;;;;;;;;;;;;;;;;5131211;28;1479;-74
2023/07/14 02:28:57;;;;;;;;;;;;;;;;;;5113872;28;1369;-74
2023/07/14 02:31:41;;;;;;;;;;;;;;;;;;5115575;27;920;-73
2023/07/14 02:34:09;;;;;;;;;;;;;;;;;;5117225;27;1158;-73
2023/07/14 02:36:53;;;;;;;;;;;;;;;;;;5135630;27;920;-74
2023/07/14 02:39:18;;;;;;;;;;;;;;;;;;5134773;27;992;-74
2023/07/14 02:41:44;;;;;;;;;;;;;;;;;;5135496;27;845;-73
2023/07/14 02:44:12;;;;;;;;;;;;;;;;;;5135438;27;880;-74
2023/07/14 02:46:49;;;;;;;;;;;;;;;;;;5116527;27;1254;-74
2023/07/14 02:49:15;;;;;;;;;;;;;;;;;;5135064;27;885;-74
2023/07/14 02:51:40;;;;;;;;;;;;;;;;;;5135090;27;1960;-74
2023/07/14 02:54:06;;;;;;;;;;;;;;;;;;5135353;27;763;-73
2023/07/14 02:56:31;;;;;;;;;;;;;;;;;;5134887;27;884;-74
2023/07/14 02:58:57;;;;;;;;;;;;;;;;;;5116974;27;1272;-73
2023/07/14 03:01:23;;;;;;;;;;;;;;;;;;5116511;27;1121;-74
2023/07/14 03:03:49;;;;;;;;;;;;;;;;;;5136058;27;881;-74
2023/07/14 03:06:15;;;;;;;;;;;;;;;;;;5116591;27;1223;-74
2023/07/14 03:08:40;;;;;;;;;;;;;;;;;;5136196;27;913;-73
2023/07/14 03:11:06;;;;;;;;;;;;;;;;;;5117584;27;1206;-74
2023/07/14 03:13:31;;;;;;;;;;;;;;;;;;5135158;27;1929;-73
2023/07/14 03:15:57;;;;;;;;;;;;;;;;;;5135380;27;854;-74
2023/07/14 03:18:22;;;;;;;;;;;;;;;;;;5115542;27;1160;-73
2023/07/14 03:20:48;;;;;;;;;;;;;;;;;;5135094;27;988;-73
2023/07/14 03:23:13;;;;;;;;;;;;;;;;;;5134406;27;953;-74
2023/07/14 03:25:39;;;;;;;;;;;;;;;;;;5134089;27;1186;-73
2023/07/14 03:28:05;;;;;;;;;;;;;;;;;;5115807;27;1270;-74
2023/07/14 03:30:36;;;;;;;;;;;;;;;;;;5116119;27;826;-75
2023/07/14 03:33:01;;;;;;;;;;;;;;;;;;5134569;27;1984;-74
2023/07/14 03:35:27;;;;;;;;;;;;;;;;;;5134148;27;893;-74
2023/07/14 03:37:53;;;;;;;;;;;;;;;;;;5098812;27;1375;-74
2023/07/14 03:40:18;;;;;;;;;;;;;;;;;;5115271;27;945;-74
2023/07/14 03:42:46;;;;;;;;;;;;;;;;;;5115716;27;1148;-74
2023/07/14 03:45:11;;;;;;;;;;;;;;;;;;5134369;27;917;-74
2023/07/14 03:47:38;;;;;;;;;;;;;;;;;;5098628;27;1190;-74
2023/07/14 03:50:03;;;;;;;;;;;;;;;;;;5133816;27;861;-74
2023/07/14 03:52:29;;;;;;;;;;;;;;;;;;5133675;27;1902;-74
2023/07/14 03:54:54;;;;;;;;;;;;;;;;;;5134326;27;968;-74
2023/07/14 03:57:19;;;;;;;;;;;;;;;;;;5133165;27;834;-74
2023/07/14 03:59:44;;;;;;;;;;;;;;;;;;5115889;27;908;-74
2023/07/14 04:02:09;;;;;;;;;;;;;;;;;;5133514;27;937;-74
2023/07/14 04:04:35;;;;;;;;;;;;;;;;;;5133290;27;921;-75
2023/07/14 04:07:00;;;;;;;;;;;;;;;;;;5134047;27;889;-74
2023/07/14 04:09:26;;;;;;;;;;;;;;;;;;5114371;27;1299;-74
2023/07/14 04:11:51;;;;;;;;;;;;;;;;;;5115446;27;1909;-74
2023/07/14 04:14:16;;;;;;;;;;;;;;;;;;5115150;27;806;-74
2023/07/14 04:16:42;;;;;;;;;;;;;;;;;;5133519;27;814;-75
2023/07/14 04:19:07;;;;;;;;;;;;;;;;;;5114984;27;1203;-74
2023/07/14 04:21:33;;;;;;;;;;;;;;;;;;5133352;27;904;-74
2023/07/14 04:23:58;;;;;;;;;;;;;;;;;;5133747;27;888;-74
2023/07/14 04:26:25;;;;;;;;;;;;;;;;;;5132563;27;1353;-74
2023/07/14 04:28:50;;;;;;;;;;;;;;;;;;5133592;27;916;-74
2023/07/14 04:31:16;;;;;;;;;;;;;;;;;;5133380;27;913;-74
2023/07/14 04:33:42;;;;;;;;;;;;;;;;;;5133801;27;1963;-74
2023/07/14 04:36:08;;;;;;;;;;;;;;;;;;5132698;27;890;-74
2023/07/14 04:38:33;;;;;;;;;;;;;;;;;;5133648;27;1010;-74
2023/07/14 04:40:58;;;;;;;;;;;;;;;;;;5134016;27;896;-74
2023/07/14 04:43:23;;;;;;;;;;;;;;;;;;5115085;27;1170;-74
2023/07/14 04:45:49;;;;;;;;;;;;;;;;;;5098744;27;1605;-74
2023/07/14 04:48:16;;;;;;;;;;;;;;;;;;5133420;27;845;-74
2023/07/14 04:50:43;;;;;;;;;;;;;;;;;;5133526;27;896;-74
2023/07/14 04:53:11;;;;;;;;;;;;;;;;;;5132279;27;1963;-74
2023/07/14 04:55:40;;;;;;;;;;;;;;;;;;5132563;27;944;-73
2023/07/14 04:58:06;;;;;;;;;;;;;;;;;;5133006;27;944;-75
2023/07/14 05:00:31;;;;;;;;;;;;;;;;;;5132497;27;920;-73
2023/07/14 05:02:57;;;;;;;;;;;;;;;;;;5133751;27;810;-74
2023/07/14 05:05:24;;;;;;;;;;;;;;;;;;5113510;27;1117;-74
2023/07/14 05:07:49;;;;;;;;;;;;;;;;;;5133199;27;916;-74
2023/07/14 05:10:19;;;;;;;;;;;;;;;;;;5114319;27;894;-74
2023/07/14 05:12:45;;;;;;;;;;;;;;;;;;5132712;27;1890;-73
2023/07/14 05:15:11;;;;;;;;;;;;;;;;;;5114296;27;921;-74
2023/07/14 05:17:41;;;;;;;;;;;;;;;;;;5114138;27;1163;-74
2023/07/14 05:20:07;;;;;;;;;;;;;;;;;;5132320;27;818;-74
2023/07/14 05:22:32;;;;;;;;;;;;;;;;;;5132258;27;818;-74
2023/07/14 05:24:58;;;;;;;;;;;;;;;;;;5132798;27;865;-74
2023/07/14 05:27:23;;;;;;;;;;;;;;;;;;5131826;27;1242;-74
2023/07/14 05:29:49;;;;;;;;;;;;;;;;;;5132518;27;896;-74
2023/07/14 05:32:15;;;;;;;;;;;;;;;;;;5113574;27;1905;-74
2023/07/14 05:34:40;;;;;;;;;;;;;;;;;;5131754;27;830;-74
2023/07/14 05:37:05;;;;;;;;;;;;;;;;;;5132410;27;944;-74
2023/07/14 05:39:30;;;;;;;;;;;;;;;;;;5131714;27;983;-73
2023/07/14 05:41:59;;;;;;;;;;;;;;;;;;5114043;28;1430;-74
2023/07/14 05:44:24;;;;;;;;;;;;;;;;;;5131753;28;952;-74
2023/07/14 05:46:50;;;;;;;;;;;;;;;;;;5132073;28;975;-74
2023/07/14 05:49:16;;;;;;;;;;;;;;;;;;5113378;28;976;-74
2023/07/14 05:51:41;;;;;;;;;;;;;;;;;;5131896;28;1897;-74
2023/07/14 05:54:06;;;;;;;;;;;;;;;;;;5113606;28;1195;-74
2023/07/14 05:56:32;;;;;;;;;;;;;;;;;;5131374;28;930;-74
2023/07/14 05:58:58;;;;;;;;;;;;;;;;;;5114255;28;1083;-74
2023/07/14 06:01:23;;;;;;;;;;;;;;;;;;5131792;28;884;-74
2023/07/14 06:03:48;;;;;;;;;;;;;;;;;;5113821;28;908;-74
2023/07/14 06:06:13;;;;;;;;;;;;;;;;;;5136177;27;1052;-74
2023/07/14 06:08:39;;;;;;;;;;;;;;;;;;5135960;27;952;-74
2023/07/14 06:11:05;;;;;;;;;;;;;;;;;;5136253;27;854;-74
2023/07/14 06:13:30;;;;;;;;;;;;;;;;;;5135637;27;1890;-74
2023/07/14 06:15:55;;;;;;;;;;;;;;;;;;5136404;27;1073;-74
2023/07/14 06:18:21;;;;;;;;;;;;;;;;;;5135446;27;972;-74
2023/07/14 06:20:46;;;;;;;;;;;;;;;;;;5118405;27;1062;-74
2023/07/14 06:23:11;;;;;;;;;;;;;;;;;;5101477;27;1378;-74
2023/07/14 06:25:36;;;;;;;;;;;;;;;;;;5135713;27;848;-73
2023/07/14 06:28:02;;;;;;;;;;;;;;;;;;5118661;27;1297;-73
2023/07/14 06:30:27;;;;;;;;;;;;;;;;;;5135955;27;880;-73
2023/07/14 06:32:53;;;;;;;;;;;;;;;;;;5136646;27;1972;-73
2023/07/14 06:35:18;;;;;;;;;;;;;;;;;;5135681;27;1021;-73
2023/07/14 06:37:43;;;;;;;;;;;;;;;;;;5136741;27;893;-73
2023/07/14 06:40:09;;;;;;;;;;;;;;;;;;5136358;27;845;-74
2023/07/14 06:42:35;;;;;;;;;;;;;;;;;;5134824;27;881;-73
2023/07/14 06:45:01;;;;;;;;;;;;;;;;;;5135665;27;853;-74
2023/07/14 06:47:27;;;;;;;;;;;;;;;;;;5116553;27;877;-75
2023/07/14 06:49:52;;;;;;;;;;;;;;;;;;5135513;27;983;-73
2023/07/14 06:52:17;;;;;;;;;;;;;;;;;;5135483;27;1963;-74
2023/07/14 06:54:44;;;;;;;;;;;;;;;;;;5134734;27;952;-74
2023/07/14 06:57:10;;;;;;;;;;;;;;;;;;5135361;27;846;-74
2023/07/14 06:59:36;;;;;;;;;;;;;;;;;;5134434;27;909;-74
2023/07/14 07:02:01;;;;;;;;;;;;;;;;;;5135078;27;904;-75
2023/07/14 07:04:27;;;;;;;;;;;;;;;;;;5132841;27;938;-75
2023/07/14 07:06:53;;;;;;;;;;;;;;;;;;5116646;27;1303;-74
2023/07/14 07:09:19;;;;;;;;;;;;;;;;;;5134839;27;846;-74
2023/07/14 07:11:44;;;;;;;;;;;;;;;;;;5134059;27;1964;-74
2023/07/14 07:14:09;;;;;;;;;;;;;;;;;;5116642;27;1290;-74
2023/07/14 07:16:35;;;;;;;;;;;;;;;;;;5133813;27;830;-74
2023/07/14 07:19:00;;;;;;;;;;;;;;;;;;5134948;27;920;-75
2023/07/14 07:21:25;;;;;;;;;;;;;;;;;;5115860;27;1367;-74
2023/07/14 07:23:50;;;;;;;;;;;;;;;;;;5134728;27;861;-74
2023/07/14 07:26:15;;;;;;;;;;;;;;;;;;5134813;27;1293;-74
2023/07/14 07:28:41;;;;;;;;;;;;;;;;;;5134644;27;833;-74
2023/07/14 07:31:09;;;;;;;;;;;;;;;;;;5135036;27;913;-74
2023/07/14 07:33:35;;;;;;;;;;;;;;;;;;5115293;27;1914;-74
2023/07/14 07:36:00;;;;;;;;;;;;;;;;;;5134835;27;861;-74
2023/07/14 07:38:25;;;;;;;;;;;;;;;;;;5134642;27;837;-74
2023/07/14 07:40:50;;;;;;;;;;;;;;;;;;5134764;27;1082;-74
2023/07/14 07:43:16;;;;;;;;;;;;;;;;;;5134479;27;908;-74
2023/07/14 07:45:46;;;;;;;;;;;;;;;;;;5133948;27;928;-74
2023/07/14 07:48:11;;;;;;;;;;;;;;;;;;5135104;27;845;-73
2023/07/14 07:50:36;;;;;;;;;;;;;;;;;;5115109;27;920;-74
2023/07/14 07:53:02;;;;;;;;;;;;;;;;;;5133894;27;1959;-74
2023/07/14 07:55:27;;;;;;;;;;;;;;;;;;5115381;27;980;-74
2023/07/14 07:57:53;;;;;;;;;;;;;;;;;;5098803;27;1341;-74
2023/07/14 08:00:19;;;;;;;;;;;;;;;;;;5134080;27;829;-74
2023/07/14 08:02:44;;;;;;;;;;;;;;;;;;5133307;27;860;-74
2023/07/14 08:05:11;;;;;;;;;;;;;;;;;;5133755;27;968;-74
2023/07/14 08:07:36;;;;;;;;;;;;;;;;;;5134146;27;877;-74
2023/07/14 08:10:03;;;;;;;;;;;;;;;;;;5134934;27;960;-74
2023/07/14 08:12:28;;;;;;;;;;;;;;;;;;5134067;27;1901;-74
2023/07/14 08:14:54;;;;;;;;;;;;;;;;;;5134397;27;945;-74
2023/07/14 08:17:22;;;;;;;;;;;;;;;;;;5132946;27;990;-74
2023/07/14 08:19:47;;;;;;;;;;;;;;;;;;5134328;27;1016;-74
2023/07/14 08:22:12;;;;;;;;;;;;;;;;;;5134519;27;829;-74
2023/07/14 08:24:38;;;;;;;;;;;;;;;;;;5133116;27;889;-74
2023/07/14 08:27:03;;;;;;;;;;;;;;;;;;5132892;27;1091;-74
2023/07/14 08:29:29;;;;;;;;;;;;;;;;;;5131274;27;897;-74
2023/07/14 08:31:54;;;;;;;;;;;;;;;;;;5132377;27;1976;-74
2023/07/14 08:34:19;;;;;;;;;;;;;;;;;;5133723;27;901;-74
2023/07/14 08:36:45;;;;;;;;;;;;;;;;;;5132607;27;1019;-74
2023/07/14 08:39:10;;;;;;;;;;;;;;;;;;5133656;27;933;-74
2023/07/14 08:41:38;;;;;;;;;;;;;;;;;;5132481;27;955;-74
2023/07/14 08:44:17;;;;;;;;;;;;;;;;;;5132946;27;834;-74
2023/07/14 08:46:49;;;;;;;;;;;;;;;;;;5132418;27;960;-74
2023/07/14 08:49:24;;;;;;;;;;;;;;;;;;5114434;27;1402;-74
2023/07/14 08:51:58;;;;;;;;;;;;;;;;;;5132613;27;1966;-74
2023/07/14 08:54:32;;;;;;;;;;;;;;;;;;5132434;27;1094;-75
2023/07/14 08:56:57;;;;;;;;;;;;;;;;;;5132883;27;932;-74
2023/07/14 08:59:35;;;;;;;;;;;;;;;;;;5088201;27;1327;-73
2023/07/14 09:02:02;;;;;;;;;;;;;;;;;;5088733;28;844;-74
2023/07/14 09:04:32;;;;;;;;;;;;;;;;;;5088214;28;915;-74
2023/07/14 09:06:57;;;;;;;;;;;;;;;;;;5088555;28;975;-73
2023/07/14 09:09:33;;;;;;;;;;;;;;;;;;5103701;28;813;-75
2023/07/14 09:11:58;;;;;;;;;;;;;;;;;;5088905;28;939;-75
2023/07/14 09:14:41;;;;;;;;;;;;;;;;;;5086772;28;1337;-74
2023/07/14 09:17:21;;;;;;;;;;;;;;;;;;5089010;28;1934;-74
2023/07/14 09:19:53;;;;;;;;;;;;;;;;;;5086941;28;1210;-74
2023/07/14 09:22:18;;;;;;;;;;;;;;;;;;5086965;28;1477;-74
2023/07/14 09:24:43;;;;;;;;;;;;;;;;;;5087658;28;970;-74
2023/07/14 09:27:19;;;;;;;;;;;;;;;;;;5088400;28;840;-74
2023/07/14 09:29:46;;;;;;;;;;;;;;;;;;5086550;28;1030;-74
2023/07/14 09:32:11;;;;;;;;;;;;;;;;;;5088555;28;899;-75
2023/07/14 09:34:38;;;;;;;;;;;;;;;;;;5087561;28;1178;-75
2023/07/14 09:37:21;;;;;;;;;;;;;;;;;;5088100;28;1898;-75
2023/07/14 09:39:48;;;;;;;;;;;;;;;;;;5088392;28;833;-75
2023/07/14 09:42:18;;;;;;;;;;;;;;;;;;5088414;28;1163;-75
2023/07/14 09:44:44;;;;;;;;;;;;;;;;;;5089006;28;1007;-75
2023/07/14 09:47:09;;;;;;;;;;;;;;;;;;5088942;28;836;-75
2023/07/14 09:49:38;;;;;;;;;;;;;;;;;;5121519;28;832;-75
2023/07/14 09:52:09;;;;;;;;;;;;;;;;;;5089145;28;824;-75
2023/07/14 09:54:35;;;;;;;;;;;;;;;;;;5087966;28;876;-74
2023/07/14 09:57:02;;;;;;;;;;;;;;;;;;5088905;28;869;-74
2023/07/14 09:59:27;;;;;;;;;;;;;;;;;;5085973;28;1902;-75
2023/07/14 10:01:54;;;;;;;;;;;;;;;;;;5087855;28;780;-75
2023/07/14 10:04:25;;;;;;;;;;;;;;;;;;5087707;28;891;-75
2023/07/14 10:06:50;;;;;;;;;;;;;;;;;;5087359;28;951;-75
2023/07/14 10:09:19;;;;;;;;;;;;;;;;;;5083014;28;837;-74
2023/07/14 10:11:46;;;;;;;;;;;;;;;;;;5073383;28;833;-75
2023/07/14 10:14:21;;;;;;;;;;;;;;;;;;5072733;28;1305;-75
2023/07/14 10:16:47;;;;;;;;;;;;;;;;;;5073759;28;907;-75
2023/07/14 10:19:18;;;;;;;;;;;;;;;;;;5073843;28;1963;-75
2023/07/14 10:21:57;;;;;;;;;;;;;;;;;;5072579;28;1114;-75
2023/07/14 10:24:24;;;;;;;;;;;;;;;;;;5072439;28;1310;-75
2023/07/14 10:27:01;;;;;;;;;;;;;;;;;;5073687;28;840;-74
2023/07/14 10:29:27;;;;;;;;;;;;;;;;;;5073766;28;894;-75
2023/07/14 10:31:53;;;;;;;;;;;;;;;;;;5089229;28;1517;-75
2023/07/14 10:34:24;;;;;;;;;;;;;;;;;;5073653;28;908;-74
2023/07/14 10:36:53;;;;;;;;;;;;;;;;;;5072959;28;891;-74
2023/07/14 10:39:37;;;;;;;;;;;;;;;;;;5071973;28;1935;-75
2023/07/14 10:42:03;;;;;;;;;;;;;;;;;;5073044;28;892;-74
2023/07/14 10:44:32;;;;;;;;;;;;;;;;;;5073353;28;966;-75
2023/07/14 10:47:02;;;;;;;;;;;;;;;;;;5073397;28;939;-74
2023/07/14 10:49:42;;;;;;;;;;;;;;;;;;5072734;28;1092;-75
2023/07/14 10:52:14;;;;;;;;;;;;;;;;;;5073234;28;695;-74
2023/07/14 10:54:39;;;;;;;;;;;;;;;;;;5072687;28;747;-75
2023/07/14 10:57:08;;;;;;;;;;;;;;;;;;5072771;28;1112;-74
2023/07/14 10:59:40;;;;;;;;;;;;;;;;;;5071016;28;1390;-75
2023/07/14 11:02:28;;;;;;;;;;;;;;;;;;5073624;28;896;-74
2023/07/14 11:05:00;;;;;;;;;;;;;;;;;;5073209;28;1038;-75
2023/07/14 11:07:30;;;;;;;;;;;;;;;;;;5073280;28;627;-75
2023/07/14 11:09:56;;;;;;;;;;;;;;;;;;5072813;28;1006;-75
2023/07/14 11:12:30;;;;;;;;;;;;;;;;;;5072718;28;924;-74
2023/07/14 11:14:55;;;;;;;;;;;;;;;;;;5073211;28;896;-75
2023/07/14 11:17:23;;;;;;;;;;;;;;;;;;5073463;28;1965;-75
2023/07/14 11:19:49;;;;;;;;;;;;;;;;;;5073830;28;904;-74
2023/07/14 11:22:14;;;;;;;;;;;;;;;;;;5072671;28;987;-75
2023/07/14 11:24:45;;;;;;;;;;;;;;;;;;5073145;28;1049;-75
2023/07/14 11:27:22;;;;;;;;;;;;;;;;;;5072478;28;1198;-75
2023/07/14 11:29:52;;;;;;;;;;;;;;;;;;5073393;28;923;-75
2023/07/14 11:32:20;;;;;;;;;;;;;;;;;;5073272;28;895;-75
2023/07/14 11:35:00;;;;;;;;;;;;;;;;;;5072131;28;1204;-75
2023/07/14 11:37:36;;;;;;;;;;;;;;;;;;5072367;28;1961;-75
2023/07/14 11:40:06;;;;;;;;;;;;;;;;;;5072434;28;907;-75
2023/07/14 11:42:33;;;;;;;;;;;;;;;;;;5070496;28;1372;-75
2023/07/14 11:45:00;;;;;;;;;;;;;;;;;;5071942;28;962;-75
2023/07/14 11:47:26;;;;;;;;;;;;;;;;;;5071878;28;1069;-75
2023/07/14 11:49:52;;;;;;;;;;;;;;;;;;5072128;28;864;-75
2023/07/14 11:52:25;;;;;;;;;;;;;;;;;;5070897;28;1202;-74
2023/07/14 11:55:06;;;;;;;;;;;;;;;;;;5070370;28;1214;-75
2023/07/14 11:57:46;;;;;;;;;;;;;;;;;;5069793;28;1977;-75
2023/07/14 12:00:14;;;;;;;;;;;;;;;;;;5072202;28;841;-75
2023/07/14 12:02:46;;;;;;;;;;;;;;;;;;5071590;28;923;-74
2023/07/14 12:05:14;;;;;;;;;;;;;;;;;;5070461;28;1409;-74
2023/07/14 12:07:58;;;;;;;;;;;;;;;;;;5071243;28;844;-75
2023/07/14 12:10:50;;;;;;;;;;;;;;;;;;5070399;28;889;-75
2023/07/14 12:13:18;;;;;;;;;;;;;;;;;;5072300;28;1364;-75
2023/07/14 12:15:56;;;;;;;;;;;;;;;;;;5071696;28;816;-75
2023/07/14 12:18:34;;;;;;;;;;;;;;;;;;5071820;28;1963;-75
2023/07/14 12:21:19;;;;;;;;;;;;;;;;;;5072001;28;840;-75
2023/07/14 12:23:56;;;;;;;;;;;;;;;;;;5071212;28;1578;-75
2023/07/14 12:26:36;;;;;;;;;;;;;;;;;;5071697;28;919;-74
2023/07/14 12:29:12;;;;;;;;;;;;;;;;;;5071998;28;765;-74
2023/07/14 12:31:37;;;;;;;;;;;;;;;;;;5070050;28;1425;-74
2023/07/14 12:34:03;;;;;;;;;;;;;;;;;;5071705;28;987;-74
2023/07/14 12:36:29;;;;;;;;;;;;;;;;;;5071301;28;898;-74
2023/07/14 12:38:55;;;;;;;;;;;;;;;;;;5071507;28;1955;-74
2023/07/14 12:41:21;;;;;;;;;;;;;;;;;;5070100;28;928;-74
2023/07/14 12:43:52;;;;;;;;;;;;;;;;;;5086743;28;1182;-74
2023/07/14 12:46:28;;;;;;;;;;;;;;;;;;5071838;28;947;-74
2023/07/14 12:49:05;;;;;;;;;;;;;;;;;;5071623;28;963;-74
2023/07/14 12:51:34;;;;;;;;;;;;;;;;;;5071280;28;884;-74
2023/07/14 12:54:01;;;;;;;;;;;;;;;;;;5071402;28;936;-74
2023/07/14 12:56:30;;;;;;;;;;;;;;;;;;5070780;28;912;-75
2023/07/14 12:58:57;;;;;;;;;;;;;;;;;;5071875;28;1910;-74
2023/07/14 13:01:23;;;;;;;;;;;;;;;;;;5071637;28;944;-73
2023/07/14 13:03:49;;;;;;;;;;;;;;;;;;5071949;28;888;-74
2023/07/14 13:06:15;;;;;;;;;;;;;;;;;;5070728;28;1335;-73
2023/07/14 13:08:44;;;;;;;;;;;;;;;;;;5072271;28;856;-74
2023/07/14 13:11:18;;;;;;;;;;;;;;;;;;5072629;28;813;-74
2023/07/14 13:13:44;;;;;;;;;;;;;;;;;;5070487;28;1379;-74
2023/07/14 13:16:10;;;;;;;;;;;;;;;;;;5070016;28;1389;-74
2023/07/14 13:18:36;;;;;;;;;;;;;;;;;;5069428;28;1910;-74
2023/07/14 13:21:04;;;;;;;;;;;;;;;;;;5071150;28;884;-74
2023/07/14 13:23:30;;;;;;;;;;;;;;;;;;5070658;28;859;-74
2023/07/14 13:26:04;;;;;;;;;;;;;;;;;;5071067;28;919;-74
2023/07/14 13:28:48;;;;;;;;;;;;;;;;;;5069371;28;1428;-74
2023/07/14 13:31:19;;;;;;;;;;;;;;;;;;5071330;28;851;-74
2023/07/14 13:33:44;;;;;;;;;;;;;;;;;;5070656;28;971;-74
2023/07/14 13:36:23;;;;;;;;;;;;;;;;;;5070690;28;910;-74
2023/07/14 13:38:49;;;;;;;;;;;;;;;;;;5103593;28;1898;-74
2023/07/14 13:41:26;;;;;;;;;;;;;;;;;;5070577;28;896;-74
2023/07/14 13:43:51;;;;;;;;;;;;;;;;;;5071167;28;876;-73
2023/07/14 13:46:20;;;;;;;;;;;;;;;;;;5107015;28;875;-74
2023/07/14 13:48:45;;;;;;;;;;;;;;;;;;5073170;28;1194;-74
2023/07/14 13:51:17;;;;;;;;;;;;;;;;;;5074238;28;900;-73
2023/07/14 13:53:43;;;;;;;;;;;;;;;;;;5074011;28;825;-73
2023/07/14 13:56:12;;;;;;;;;;;;;;;;;;5074616;28;927;-74
2023/07/14 13:58:38;;;;;;;;;;;;;;;;;;5073389;28;1965;-74
2023/07/14 14:01:03;;;;;;;;;;;;;;;;;;5106779;28;840;-74
2023/07/14 14:03:28;;;;;;;;;;;;;;;;;;5072590;28;1514;-74
2023/07/14 14:05:54;;;;;;;;;;;;;;;;;;5072899;28;1187;-73
2023/07/14 14:08:19;;;;;;;;;;;;;;;;;;5074081;28;1059;-74
2023/07/14 14:10:45;;;;;;;;;;;;;;;;;;5106707;28;1014;-74
2023/07/14 14:13:10;;;;;;;;;;;;;;;;;;5106424;28;990;-74
2023/07/14 14:15:44;;;;;;;;;;;;;;;;;;5073179;28;975;-73
2023/07/14 14:18:20;;;;;;;;;;;;;;;;;;5072769;28;1914;-74
2023/07/14 14:20:46;;;;;;;;;;;;;;;;;;5073264;28;872;-74
2023/07/14 14:23:12;;;;;;;;;;;;;;;;;;5073559;28;808;-74
2023/07/14 14:25:37;;;;;;;;;;;;;;;;;;5073446;28;935;-74
2023/07/14 14:28:03;;;;;;;;;;;;;;;;;;5074010;28;927;-74
2023/07/14 14:30:37;;;;;;;;;;;;;;;;;;5071717;28;1275;-74
2023/07/14 14:33:04;;;;;;;;;;;;;;;;;;5073970;28;852;-74
2023/07/14 14:35:34;;;;;;;;;;;;;;;;;;5072822;28;1068;-74
2023/07/14 14:38:01;;;;;;;;;;;;;;;;;;5074424;28;1913;-74
2023/07/14 14:40:28;;;;;;;;;;;;;;;;;;5074344;28;914;-74
2023/07/14 14:42:56;;;;;;;;;;;;;;;;;;5074894;28;1015;-74
2023/07/14 14:45:23;;;;;;;;;;;;;;;;;;5074068;28;1050;-74
2023/07/14 14:47:49;;;;;;;;;;;;;;;;;;5074628;28;897;-74
2023/07/14 14:50:15;;;;;;;;;;;;;;;;;;5073911;28;821;-74
2023/07/14 14:52:40;;;;;;;;;;;;;;;;;;5073355;28;919;-74
2023/07/14 14:55:08;;;;;;;;;;;;;;;;;;5073280;28;817;-74
2023/07/14 14:57:33;;;;;;;;;;;;;;;;;;5072906;28;1902;-74
2023/07/14 15:00:00;;;;;;;;;;;;;;;;;;5073171;28;1240;-74
2023/07/14 15:02:25;;;;;;;;;;;;;;;;;;5072930;28;888;-74
2023/07/14 15:04:50;;;;;;;;;;;;;;;;;;5073447;28;954;-74
2023/07/14 15:07:15;;;;;;;;;;;;;;;;;;5073034;28;899;-74
2023/07/14 15:09:41;;;;;;;;;;;;;;;;;;5071928;28;1424;-71
2023/07/14 15:12:12;;;;;;;;;;;;;;;;;;5073304;28;1180;-72
2023/07/14 15:14:37;;;;;;;;;;;;;;;;;;5072268;28;925;-73
2023/07/14 15:17:15;;;;;;;;;;;;;;;;;;5072465;28;1046;-73
2023/07/14 15:19:40;;;;;;;;;;;;;;;;;;5072570;28;1976;-72
2023/07/14 15:22:15;;;;;;;;;;;;;;;;;;5072800;28;832;-72
2023/07/14 15:24:40;;;;;;;;;;;;;;;;;;5072228;28;1052;-72
2023/07/14 15:27:09;;;;;;;;;;;;;;;;;;5072762;28;844;-72
2023/07/14 15:29:34;;;;;;;;;;;;;;;;;;5072278;28;972;-73
2023/07/14 15:31:59;;;;;;;;;;;;;;;;;;5072913;28;828;-72
2023/07/14 15:34:25;;;;;;;;;;;;;;;;;;5072116;28;865;-73
2023/07/14 15:36:50;;;;;;;;;;;;;;;;;;5072669;28;947;-72
2023/07/14 15:39:15;;;;;;;;;;;;;;;;;;5072564;28;1897;-73
2023/07/14 15:41:42;;;;;;;;;;;;;;;;;;5071995;28;902;-72
2023/07/14 15:44:11;;;;;;;;;;;;;;;;;;5072542;28;891;-72
2023/07/14 15:46:37;;;;;;;;;;;;;;;;;;5071863;28;816;-72
2023/07/14 15:49:03;;;;;;;;;;;;;;;;;;5072415;28;800;-72
2023/07/14 15:51:30;;;;;;;;;;;;;;;;;;5070058;28;824;-73
2023/07/14 15:54:04;;;;;;;;;;;;;;;;;;5072493;28;829;-72
2023/07/14 15:56:31;;;;;;;;;;;;;;;;;;5071596;28;848;-72
2023/07/14 15:58:56;;;;;;;;;;;;;;;;;;5071931;28;1898;-73
2023/07/14 16:01:24;;;;;;;;;;;;;;;;;;5072031;28;899;-73
2023/07/14 16:03:50;;;;;;;;;;;;;;;;;;5072331;28;864;-72
2023/07/14 16:06:15;;;;;;;;;;;;;;;;;;5071300;28;887;-73
2023/07/14 16:08:41;;;;;;;;;;;;;;;;;;5071454;28;904;-73
2023/07/14 16:11:27;;;;;;;;;;;;;;;;;;5071913;28;899;-73
2023/07/14 16:13:52;;;;;;;;;;;;;;;;;;5072278;28;841;-73
2023/07/14 16:16:18;;;;;;;;;;;;;;;;;;5071874;28;916;-73
2023/07/14 16:18:43;;;;;;;;;;;;;;;;;;5072176;28;1910;-73
2023/07/14 16:21:28;;;;;;;;;;;;;;;;;;5072810;28;825;-73
2023/07/14 16:23:54;;;;;;;;;;;;;;;;;;5072450;28;1193;-73
2023/07/14 16:26:20;;;;;;;;;;;;;;;;;;5072075;28;900;-73
2023/07/14 16:28:45;;;;;;;;;;;;;;;;;;5070541;28;892;-73
2023/07/14 16:31:12;;;;;;;;;;;;;;;;;;5070706;28;832;-72
2023/07/14 16:33:37;;;;;;;;;;;;;;;;;;5072082;28;617;-72
2023/07/14 16:36:03;;;;;;;;;;;;;;;;;;5071667;28;1348;-72
2023/07/14 16:38:28;;;;;;;;;;;;;;;;;;5069832;28;1976;-72
2023/07/14 16:40:53;;;;;;;;;;;;;;;;;;5072240;28;844;-73
2023/07/14 16:43:20;;;;;;;;;;;;;;;;;;5070139;28;864;-72
2023/07/14 16:45:50;;;;;;;;;;;;;;;;;;5069656;28;879;-73
2023/07/14 16:48:18;;;;;;;;;;;;;;;;;;5071417;28;865;-72
2023/07/14 16:50:43;;;;;;;;;;;;;;;;;;5071070;28;889;-73
2023/07/14 16:53:13;;;;;;;;;;;;;;;;;;5071336;28;999;-73
2023/07/14 16:55:40;;;;;;;;;;;;;;;;;;5071016;28;1157;-72
2023/07/14 16:58:14;;;;;;;;;;;;;;;;;;5070002;28;1914;-72
2023/07/14 17:00:43;;;;;;;;;;;;;;;;;;5070987;28;932;-72
2023/07/14 17:03:27;;;;;;;;;;;;;;;;;;5071531;28;1642;-72
2023/07/14 17:05:55;;;;;;;;;;;;;;;;;;5071435;28;903;-72
2023/07/14 17:08:24;;;;;;;;;;;;;;;;;;5070935;28;856;-72
2023/07/14 17:10:51;;;;;;;;;;;;;;;;;;5070811;28;927;-72
2023/07/14 17:13:18;;;;;;;;;;;;;;;;;;5071808;28;895;-72
2023/07/14 17:15:44;;;;;;;;;;;;;;;;;;5070898;28;856;-72
2023/07/14 17:18:16;;;;;;;;;;;;;;;;;;5071716;28;1915;-72